sensor_id;sensor_type;location;lat;lon;timestamp;P1;durP1;ratioP1;P2;durP2;ratioP2
30337;SDS011;17143;51.888;5.408;2022-10-16T00:00:46;5.67;;;1.40;;
30337;SDS011;17143;51.888;5.408;2022-10-16T00:15:48;2.33;;;1.13;;
30337;SDS011;17143;51.888;5.408;2022-10-16T00:30:50;2.47;;;1.20;;
30337;SDS011;17143;51.888;5.408;2022-10-16T00:45:52;1.20;;;1.03;;
30337;SDS011;17143;51.888;5.408;2022-10-16T01:00:54;1.83;;;1.10;;
30337;SDS011;17143;51.888;5.408;2022-10-16T01:15:59;1.37;;;1.13;;
30337;SDS011;17143;51.888;5.408;2022-10-16T01:31:06;4.47;;;1.30;;
30337;SDS011;17143;51.888;5.408;2022-10-16T01:46:11;1.57;;;0.90;;
30337;SDS011;17143;51.888;5.408;2022-10-16T02:01:16;1.53;;;1.20;;
30337;SDS011;17143;51.888;5.408;2022-10-16T02:16:23;2.60;;;0.90;;
30337;SDS011;17143;51.888;5.408;2022-10-16T02:31:35;1.37;;;0.90;;
30337;SDS011;17143;51.888;5.408;2022-10-16T02:46:44;1.03;;;1.00;;
30337;SDS011;17143;51.888;5.408;2022-10-16T03:01:46;1.70;;;0.80;;
30337;SDS011;17143;51.888;5.408;2022-10-16T03:16:48;1.00;;;0.80;;
30337;SDS011;17143;51.888;5.408;2022-10-16T03:31:50;1.03;;;0.87;;
30337;SDS011;17143;51.888;5.408;2022-10-16T03:46:52;1.27;;;0.83;;
30337;SDS011;17143;51.888;5.408;2022-10-16T04:01:53;0.70;;;0.50;;
30337;SDS011;17143;51.888;5.408;2022-10-16T04:16:56;0.63;;;0.50;;
30337;SDS011;17143;51.888;5.408;2022-10-16T04:31:57;0.67;;;0.67;;
30337;SDS011;17143;51.888;5.408;2022-10-16T04:46:59;2.17;;;0.80;;
30337;SDS011;17143;51.888;5.408;2022-10-16T05:02:02;1.57;;;0.67;;
30337;SDS011;17143;51.888;5.408;2022-10-16T05:17:04;1.70;;;0.80;;
30337;SDS011;17143;51.888;5.408;2022-10-16T05:32:06;0.93;;;0.80;;
30337;SDS011;17143;51.888;5.408;2022-10-16T05:47:08;2.10;;;0.60;;
30337;SDS011;17143;51.888;5.408;2022-10-16T06:02:10;3.60;;;0.80;;
30337;SDS011;17143;51.888;5.408;2022-10-16T06:17:14;0.90;;;0.70;;
30337;SDS011;17143;51.888;5.408;2022-10-16T06:32:16;2.77;;;0.97;;
30337;SDS011;17143;51.888;5.408;2022-10-16T06:47:18;1.53;;;0.70;;
30337;SDS011;17143;51.888;5.408;2022-10-16T07:02:20;3.40;;;0.90;;
30337;SDS011;17143;51.888;5.408;2022-10-16T07:17:22;1.37;;;0.70;;
30337;SDS011;17143;51.888;5.408;2022-10-16T07:32:24;1.07;;;0.90;;
30337;SDS011;17143;51.888;5.408;2022-10-16T07:47:26;1.30;;;1.00;;
30337;SDS011;17143;51.888;5.408;2022-10-16T08:02:28;1.90;;;1.10;;
30337;SDS011;17143;51.888;5.408;2022-10-16T08:17:30;1.83;;;0.90;;
30337;SDS011;17143;51.888;5.408;2022-10-16T08:32:32;3.90;;;1.70;;
30337;SDS011;17143;51.888;5.408;2022-10-16T08:47:39;4.37;;;2.10;;
30337;SDS011;17143;51.888;5.408;2022-10-16T09:02:50;5.00;;;2.00;;
30337;SDS011;17143;51.888;5.408;2022-10-16T09:17:58;4.60;;;2.07;;
30337;SDS011;17143;51.888;5.408;2022-10-16T09:33:05;7.07;;;2.20;;
30337;SDS011;17143;51.888;5.408;2022-10-16T09:48:12;9.27;;;2.30;;
30337;SDS011;17143;51.888;5.408;2022-10-16T10:03:16;9.87;;;2.03;;
30337;SDS011;17143;51.888;5.408;2022-10-16T10:18:34;6.10;;;2.27;;
30337;SDS011;17143;51.888;5.408;2022-10-16T10:33:40;12.03;;;2.00;;
30337;SDS011;17143;51.888;5.408;2022-10-16T10:48:57;9.53;;;1.93;;
30337;SDS011;17143;51.888;5.408;2022-10-16T11:19:44;7.27;;;1.87;;
30337;SDS011;17143;51.888;5.408;2022-10-16T11:34:53;11.20;;;1.93;;
30337;SDS011;17143;51.888;5.408;2022-10-16T11:50:02;7.47;;;1.70;;
30337;SDS011;17143;51.888;5.408;2022-10-16T12:05:18;8.03;;;2.80;;
30337;SDS011;17143;51.888;5.408;2022-10-16T12:20:26;6.80;;;1.87;;
30337;SDS011;17143;51.888;5.408;2022-10-16T12:35:31;6.33;;;2.13;;
30337;SDS011;17143;51.888;5.408;2022-10-16T12:50:36;6.63;;;1.77;;
30337;SDS011;17143;51.888;5.408;2022-10-16T13:05:45;7.57;;;1.90;;
30337;SDS011;17143;51.888;5.408;2022-10-16T13:21:01;9.17;;;2.00;;
30337;SDS011;17143;51.888;5.408;2022-10-16T13:36:18;9.23;;;1.60;;
30337;SDS011;17143;51.888;5.408;2022-10-16T13:51:22;5.33;;;1.50;;
30337;SDS011;17143;51.888;5.408;2022-10-16T14:06:24;7.07;;;1.90;;
30337;SDS011;17143;51.888;5.408;2022-10-16T14:21:26;5.27;;;1.67;;
30337;SDS011;17143;51.888;5.408;2022-10-16T14:36:29;8.70;;;1.70;;
30337;SDS011;17143;51.888;5.408;2022-10-16T14:51:32;5.33;;;1.87;;
30337;SDS011;17143;51.888;5.408;2022-10-16T15:06:34;8.73;;;2.10;;
30337;SDS011;17143;51.888;5.408;2022-10-16T15:21:36;10.10;;;2.20;;
30337;SDS011;17143;51.888;5.408;2022-10-16T15:36:38;7.50;;;1.57;;
30337;SDS011;17143;51.888;5.408;2022-10-16T15:51:41;11.73;;;1.83;;
30337;SDS011;17143;51.888;5.408;2022-10-16T16:06:43;5.53;;;1.87;;
30337;SDS011;17143;51.888;5.408;2022-10-16T16:21:45;10.40;;;2.57;;
30337;SDS011;17143;51.888;5.408;2022-10-16T16:36:48;5.70;;;2.33;;
30337;SDS011;17143;51.888;5.408;2022-10-16T16:51:50;6.43;;;2.20;;
30337;SDS011;17143;51.888;5.408;2022-10-16T17:06:52;11.90;;;3.00;;
30337;SDS011;17143;51.888;5.408;2022-10-16T17:21:54;11.97;;;3.07;;
30337;SDS011;17143;51.888;5.408;2022-10-16T17:36:56;9.93;;;3.17;;
30337;SDS011;17143;51.888;5.408;2022-10-16T17:51:58;10.13;;;4.37;;
30337;SDS011;17143;51.888;5.408;2022-10-16T18:07:00;11.60;;;3.27;;
30337;SDS011;17143;51.888;5.408;2022-10-16T18:22:02;10.10;;;4.40;;
30337;SDS011;17143;51.888;5.408;2022-10-16T18:37:04;7.43;;;3.87;;
30337;SDS011;17143;51.888;5.408;2022-10-16T18:52:06;6.37;;;3.33;;
30337;SDS011;17143;51.888;5.408;2022-10-16T19:07:08;7.23;;;3.60;;
30337;SDS011;17143;51.888;5.408;2022-10-16T19:22:10;5.13;;;3.10;;
30337;SDS011;17143;51.888;5.408;2022-10-16T19:37:12;4.43;;;3.10;;
30337;SDS011;17143;51.888;5.408;2022-10-16T19:52:14;7.30;;;3.87;;
30337;SDS011;17143;51.888;5.408;2022-10-16T20:07:16;6.67;;;2.37;;
30337;SDS011;17143;51.888;5.408;2022-10-16T20:22:18;8.60;;;4.30;;
30337;SDS011;17143;51.888;5.408;2022-10-16T20:37:20;4.97;;;2.33;;
30337;SDS011;17143;51.888;5.408;2022-10-16T20:52:22;4.93;;;2.30;;
30337;SDS011;17143;51.888;5.408;2022-10-16T21:07:24;3.10;;;2.03;;
30337;SDS011;17143;51.888;5.408;2022-10-16T21:22:28;3.23;;;1.93;;
30337;SDS011;17143;51.888;5.408;2022-10-16T21:37:31;3.10;;;2.20;;
30337;SDS011;17143;51.888;5.408;2022-10-16T21:52:33;3.43;;;1.87;;
30337;SDS011;17143;51.888;5.408;2022-10-16T22:07:35;4.03;;;2.30;;
30337;SDS011;17143;51.888;5.408;2022-10-16T22:22:37;3.97;;;1.83;;
30337;SDS011;17143;51.888;5.408;2022-10-16T22:37:39;2.90;;;2.20;;
30337;SDS011;17143;51.888;5.408;2022-10-16T22:52:41;3.97;;;2.57;;
30337;SDS011;17143;51.888;5.408;2022-10-16T23:07:43;21.40;;;10.43;;
30337;SDS011;17143;51.888;5.408;2022-10-16T23:22:45;20.90;;;9.13;;
30337;SDS011;17143;51.888;5.408;2022-10-16T23:37:47;5.47;;;3.93;;
30337;SDS011;17143;51.888;5.408;2022-10-16T23:52:49;9.40;;;5.80;;
